createdAt,value
2022-11-19T00:01:28.690Z,-3.94
2022-11-19T00:03:56.129Z,-4.20
2022-11-19T00:06:27.640Z,-4.02
2022-11-19T00:08:55.067Z,-3.78
2022-11-19T00:11:47.028Z,-3.76
2022-11-19T00:14:16.095Z,-3.70
2022-11-19T00:16:45.504Z,-3.68
2022-11-19T00:19:12.963Z,-3.78
2022-11-19T00:21:39.819Z,-3.66
2022-11-19T00:24:07.293Z,-3.70
2022-11-19T00:26:34.179Z,-3.71
2022-11-19T00:29:01.126Z,-3.78
2022-11-19T00:31:28.455Z,-4.47
2022-11-19T00:33:55.368Z,-3.79
2022-11-19T00:36:23.352Z,-3.85
2022-11-19T00:38:50.482Z,-3.87
2022-11-19T00:41:17.719Z,-3.91
2022-11-19T00:43:47.598Z,-4.11
2022-11-19T00:46:30.989Z,-3.94
2022-11-19T00:48:59.635Z,-4.14
2022-11-19T00:51:29.161Z,-4.17
2022-11-19T00:53:56.936Z,-3.99
2022-11-19T00:56:25.401Z,-3.99
2022-11-19T00:58:52.617Z,-4.00
2022-11-19T01:01:21.288Z,-4.01
2022-11-19T01:03:48.890Z,-4.08
2022-11-19T01:06:19.529Z,-4.12
2022-11-19T01:08:48.320Z,-4.06
2022-11-19T01:11:18.120Z,-4.00
2022-11-19T01:13:45.067Z,-3.98
2022-11-19T01:16:36.821Z,-3.91
2022-11-19T01:19:05.472Z,-3.82
2022-11-19T01:21:34.319Z,-3.73
2022-11-19T01:24:03.357Z,-3.89
2022-11-19T01:26:30.699Z,-3.89
2022-11-19T01:28:58.063Z,-3.75
2022-11-19T01:31:27.779Z,-3.81
2022-11-19T01:33:55.009Z,-3.93
2022-11-19T01:36:24.631Z,-4.06
2022-11-19T01:38:51.951Z,-3.88
2022-11-19T01:41:20.469Z,-4.02
2022-11-19T01:43:49.113Z,-3.91
2022-11-19T01:46:24.339Z,-3.94
2022-11-19T01:48:56.822Z,-4.09
2022-11-19T01:51:29.704Z,-4.07
2022-11-19T01:54:01.941Z,-3.92
2022-11-19T01:56:30.625Z,-3.83
2022-11-19T01:59:07.427Z,-3.88
2022-11-19T02:01:34.602Z,-3.75
2022-11-19T02:04:03.669Z,-3.81
2022-11-19T02:06:32.350Z,-3.71
2022-11-19T02:08:59.328Z,-3.69
2022-11-19T02:11:26.151Z,-3.61
2022-11-19T02:14:31.900Z,-3.49
2022-11-19T02:17:36.114Z,-3.40
2022-11-19T02:20:24.598Z,-3.37
2022-11-19T02:23:16.152Z,-3.34
2022-11-19T02:26:08.171Z,-3.39
2022-11-19T02:28:46.372Z,-3.31
2022-11-19T02:31:39.467Z,-3.21
2022-11-19T02:34:39.312Z,-3.16
2022-11-19T02:37:15.466Z,-3.15
2022-11-19T02:39:56.872Z,-3.15
2022-11-19T02:42:48.049Z,-3.08
2022-11-19T02:45:45.523Z,-3.12
2022-11-19T02:48:18.048Z,-3.58
2022-11-19T02:50:58.180Z,-3.35
2022-11-19T02:53:25.071Z,-3.54
2022-11-19T02:56:10.449Z,-3.49
2022-11-19T02:59:03.530Z,-4.26
2022-11-19T03:01:52.649Z,-3.70
2022-11-19T03:04:31.238Z,-3.62
2022-11-19T03:07:17.619Z,-3.55
2022-11-19T03:10:00.135Z,-3.69
2022-11-19T03:12:36.310Z,-3.66
2022-11-19T03:15:44.332Z,-3.67
2022-11-19T03:18:36.284Z,-3.57
2022-11-19T03:21:15.169Z,-3.61
2022-11-19T03:23:54.772Z,-3.66
2022-11-19T03:26:30.232Z,-3.76
2022-11-19T03:29:01.896Z,-3.63
2022-11-19T03:31:31.704Z,-3.68
2022-11-19T03:34:04.104Z,-3.64
2022-11-19T03:36:36.990Z,-3.82
2022-11-19T03:39:08.158Z,-3.82
2022-11-19T03:41:37.902Z,-3.80
2022-11-19T03:44:22.069Z,-3.75
2022-11-19T03:46:55.958Z,-3.58
2022-11-19T03:49:31.747Z,-3.58
2022-11-19T03:52:12.605Z,-3.56
2022-11-19T03:54:40.663Z,-3.52
2022-11-19T03:57:10.339Z,-3.51
2022-11-19T03:59:37.560Z,-3.69
2022-11-19T04:02:07.986Z,-3.75
2022-11-19T04:04:38.233Z,-3.55
2022-11-19T04:07:11.545Z,-3.62
2022-11-19T04:09:39.980Z,-3.56
2022-11-19T04:12:08.919Z,-3.60
2022-11-19T04:14:35.798Z,-3.56
2022-11-19T04:17:02.748Z,-3.58
2022-11-19T04:19:29.639Z,-3.61
2022-11-19T04:21:56.567Z,-3.69
2022-11-19T04:24:23.476Z,-3.47
2022-11-19T04:26:50.425Z,-3.39
2022-11-19T04:29:17.682Z,-3.35
2022-11-19T04:31:44.950Z,-3.30
2022-11-19T04:34:11.896Z,-3.41
2022-11-19T04:36:42.354Z,-3.59
2022-11-19T04:39:10.201Z,-3.36
2022-11-19T04:41:37.163Z,-3.23
2022-11-19T04:44:04.337Z,-3.13
2022-11-19T04:46:31.595Z,-3.08
2022-11-19T04:48:58.818Z,-3.32
2022-11-19T04:51:25.785Z,-3.87
2022-11-19T04:53:52.759Z,-3.37
2022-11-19T04:56:19.642Z,-3.30
2022-11-19T04:58:46.600Z,-3.35
2022-11-19T05:01:13.541Z,-3.36
2022-11-19T05:03:40.449Z,-3.31
2022-11-19T05:06:07.810Z,-3.26
2022-11-19T05:08:34.705Z,-3.25
2022-11-19T05:11:01.616Z,-3.17
2022-11-19T05:13:28.568Z,-3.13
2022-11-19T05:15:55.420Z,-3.09
2022-11-19T05:18:22.949Z,-3.12
2022-11-19T05:20:49.849Z,-3.32
2022-11-19T05:23:16.692Z,-3.29
2022-11-19T05:25:43.608Z,-3.26
2022-11-19T05:28:10.544Z,-3.25
2022-11-19T05:30:37.412Z,-3.26
2022-11-19T05:33:04.872Z,-3.18
2022-11-19T05:35:31.793Z,-3.22
2022-11-19T05:37:58.677Z,-3.25
2022-11-19T05:40:25.625Z,-3.29
2022-11-19T05:42:52.530Z,-3.28
2022-11-19T05:45:19.456Z,-3.17
2022-11-19T05:47:48.840Z,-3.11
2022-11-19T05:50:16.550Z,-3.17
2022-11-19T05:52:43.479Z,-3.10
2022-11-19T05:55:10.331Z,-3.32
2022-11-19T05:57:37.228Z,-2.98
2022-11-19T06:00:05.661Z,-3.05
2022-11-19T06:02:39.888Z,-3.21
2022-11-19T06:05:07.420Z,-2.96
2022-11-19T06:07:34.321Z,-2.89
2022-11-19T06:10:01.315Z,-2.83
2022-11-19T06:12:30.955Z,-3.06
2022-11-19T06:14:57.963Z,-2.79
2022-11-19T06:17:24.813Z,-2.91
2022-11-19T06:19:51.797Z,-2.75
2022-11-19T06:22:18.657Z,-3.09
2022-11-19T06:24:45.507Z,-2.82
2022-11-19T06:27:12.358Z,-2.75
2022-11-19T06:29:39.250Z,-2.79
2022-11-19T06:32:06.144Z,-2.58
2022-11-19T06:34:33.054Z,-3.07
2022-11-19T06:37:00.207Z,-2.64
2022-11-19T06:39:27.121Z,-2.44
2022-11-19T06:41:54.095Z,-2.38
2022-11-19T06:44:20.953Z,-2.26
2022-11-19T06:46:47.821Z,-2.24
2022-11-19T06:49:19.853Z,-2.12
2022-11-19T06:51:47.121Z,-2.09
2022-11-19T06:54:14.129Z,-2.06
2022-11-19T06:56:41.106Z,-2.16
2022-11-19T06:59:08.041Z,-2.11
2022-11-19T07:01:35.044Z,-2.49
2022-11-19T07:04:02.035Z,-2.03
2022-11-19T07:06:28.914Z,-2.00
2022-11-19T07:08:55.793Z,-2.10
2022-11-19T07:11:28.688Z,-2.05
2022-11-19T07:13:57.708Z,-2.07
2022-11-19T07:16:26.207Z,-2.01
2022-11-19T07:18:53.319Z,-1.92
2022-11-19T07:21:20.250Z,-1.80
2022-11-19T07:23:47.137Z,-1.82
2022-11-19T07:26:15.374Z,-2.22
2022-11-19T07:28:42.297Z,-1.83
2022-11-19T07:31:09.566Z,-1.74
2022-11-19T07:33:39.160Z,-1.62
2022-11-19T07:36:14.045Z,-1.56
2022-11-19T07:38:43.864Z,-1.90
2022-11-19T07:41:29.366Z,-1.72
2022-11-19T07:43:56.260Z,-1.55
2022-11-19T07:46:23.371Z,-1.39
2022-11-19T07:48:54.529Z,-1.30
2022-11-19T07:51:22.042Z,-1.34
2022-11-19T07:53:49.729Z,-1.29
2022-11-19T07:56:17.552Z,-1.32
2022-11-19T07:58:45.078Z,-1.40
2022-11-19T08:01:14.871Z,-1.63
2022-11-19T08:03:42.867Z,-1.41
2022-11-19T08:06:10.154Z,-1.38
2022-11-19T08:08:37.752Z,-1.37
2022-11-19T08:11:06.455Z,-1.24
2022-11-19T08:13:34.093Z,-1.20
2022-11-19T08:16:05.454Z,-1.28
2022-11-19T08:18:32.493Z,-1.13
2022-11-19T08:21:08.016Z,-1.00
2022-11-19T08:23:37.162Z,-1.16
2022-11-19T08:26:06.778Z,-1.12
2022-11-19T08:28:33.701Z,-1.02
2022-11-19T08:31:08.350Z,-1.19
2022-11-19T08:33:35.919Z,-1.11
2022-11-19T08:36:03.542Z,-1.06
2022-11-19T08:38:34.535Z,-1.12
2022-11-19T08:41:23.164Z,-1.05
2022-11-19T08:43:50.018Z,-1.19
2022-11-19T08:46:18.122Z,-1.21
2022-11-19T08:48:45.089Z,-1.14
2022-11-19T08:51:14.827Z,-1.19
2022-11-19T08:53:43.144Z,-1.36
2022-11-19T08:56:13.965Z,-1.21
2022-11-19T08:58:45.222Z,-1.02
2022-11-19T09:01:14.170Z,-1.51
2022-11-19T09:03:41.999Z,-1.09
2022-11-19T09:06:09.751Z,-1.01
2022-11-19T09:08:36.882Z,-1.02
2022-11-19T09:11:12.604Z,-1.08
2022-11-19T09:13:39.873Z,-1.38
2022-11-19T09:16:07.815Z,-1.21
2022-11-19T09:18:39.040Z,-1.14
2022-11-19T09:21:07.891Z,-1.14
2022-11-19T09:23:35.056Z,-1.18
2022-11-19T09:26:11.987Z,-0.98
2022-11-19T09:28:38.858Z,-1.16
2022-11-19T09:31:10.373Z,-1.20
2022-11-19T09:33:39.501Z,-1.19
2022-11-19T09:36:06.707Z,-1.44
2022-11-19T09:38:35.251Z,-1.56
2022-11-19T09:41:25.273Z,-1.43
2022-11-19T09:44:21.464Z,-1.62
2022-11-19T09:47:17.295Z,-1.79
2022-11-19T09:49:50.095Z,-1.62
2022-11-19T09:52:23.170Z,-1.61
2022-11-19T09:54:54.168Z,-1.61
2022-11-19T09:57:29.641Z,-1.33
2022-11-19T09:59:59.072Z,-1.80
2022-11-19T10:02:26.372Z,-1.20
2022-11-19T10:04:53.951Z,-1.43
2022-11-19T10:07:20.901Z,-1.40
2022-11-19T10:10:12.668Z,-1.67
2022-11-19T10:12:42.629Z,-1.76
2022-11-19T10:15:22.924Z,-1.41
2022-11-19T10:18:35.046Z,-1.76
2022-11-19T10:21:24.618Z,-1.79
2022-11-19T10:24:10.230Z,-1.70
2022-11-19T10:26:40.959Z,-1.88
2022-11-19T10:29:22.167Z,-1.94
2022-11-19T10:31:51.425Z,-1.81
2022-11-19T10:34:38.776Z,-1.77
2022-11-19T10:37:14.305Z,-1.74
2022-11-19T10:40:07.433Z,-1.60
2022-11-19T10:42:41.313Z,-1.53
2022-11-19T10:45:19.148Z,-1.71
2022-11-19T10:47:48.095Z,-1.57
2022-11-19T10:50:19.844Z,-1.61
2022-11-19T10:52:55.255Z,-1.56
2022-11-19T10:55:39.991Z,-1.70
2022-11-19T10:58:23.455Z,-1.70
2022-11-19T11:00:53.610Z,-1.74
2022-11-19T11:03:34.304Z,-1.54
2022-11-19T11:06:05.314Z,-1.60
2022-11-19T11:08:48.835Z,-1.27
2022-11-19T11:11:24.824Z,-1.23
2022-11-19T11:14:10.786Z,-1.40
2022-11-19T11:16:45.054Z,-1.41
2022-11-19T11:19:18.551Z,-1.46
2022-11-19T11:21:45.953Z,-1.42
2022-11-19T11:24:14.635Z,-1.52
2022-11-19T11:26:41.657Z,-1.81
2022-11-19T11:29:14.696Z,-1.42
2022-11-19T11:31:44.059Z,-1.32
2022-11-19T11:34:25.936Z,-1.38
2022-11-19T11:36:54.599Z,-1.36
2022-11-19T11:39:28.111Z,-1.41
2022-11-19T11:42:17.429Z,-1.37
2022-11-19T11:45:01.605Z,-1.82
2022-11-19T11:47:36.552Z,-1.81
2022-11-19T11:50:23.743Z,-1.48
2022-11-19T11:52:53.530Z,-1.64
2022-11-19T11:55:23.252Z,-1.59
2022-11-19T11:58:02.147Z,-1.86
2022-11-19T12:00:29.050Z,-1.72
2022-11-19T12:03:11.111Z,-1.60
2022-11-19T12:06:02.015Z,-1.43
2022-11-19T12:08:35.765Z,-1.43
2022-11-19T12:11:20.625Z,-1.42
2022-11-19T12:13:56.762Z,-1.44
2022-11-19T12:16:46.141Z,-1.52
2022-11-19T12:19:38.343Z,-1.36
2022-11-19T12:22:09.879Z,-1.38
2022-11-19T12:24:42.765Z,-1.38
2022-11-19T12:27:18.686Z,-1.31
2022-11-19T12:30:00.257Z,-1.55
2022-11-19T12:32:49.020Z,-1.83
2022-11-19T12:35:44.648Z,-1.75
2022-11-19T12:38:32.187Z,-1.49
2022-11-19T12:41:02.005Z,-1.45
2022-11-19T12:43:50.177Z,-1.48
2022-11-19T12:46:35.374Z,-1.41
2022-11-19T12:49:44.178Z,-1.49
2022-11-19T12:52:40.404Z,-1.38
2022-11-19T12:55:33.293Z,-2.06
2022-11-19T12:58:06.222Z,-1.65
2022-11-19T13:00:41.264Z,-1.81
2022-11-19T13:03:12.464Z,-1.92
2022-11-19T13:06:07.679Z,-1.91
2022-11-19T13:08:41.758Z,-1.79
2022-11-19T13:11:16.525Z,-1.65
2022-11-19T13:13:57.391Z,-1.61
2022-11-19T13:16:27.181Z,-1.71
2022-11-19T13:19:05.442Z,-1.57
2022-11-19T13:21:46.337Z,-1.73
2022-11-19T13:24:38.227Z,-1.66
2022-11-19T13:27:11.307Z,-1.59
2022-11-19T13:29:49.766Z,-1.47
2022-11-19T13:32:31.719Z,-1.51
2022-11-19T13:35:04.477Z,-1.51
2022-11-19T13:38:19.964Z,-1.47
2022-11-19T13:40:49.579Z,-1.55
2022-11-19T13:43:38.602Z,-1.56
2022-11-19T13:46:11.230Z,-1.50
2022-11-19T13:48:51.104Z,-1.45
2022-11-19T13:51:40.491Z,-1.46
2022-11-19T13:54:09.103Z,-1.72
2022-11-19T13:56:46.440Z,-1.95
2022-11-19T13:59:31.998Z,-1.80
2022-11-19T14:02:17.540Z,-1.88
2022-11-19T14:05:10.099Z,-1.65
2022-11-19T14:08:08.930Z,-1.72
2022-11-19T14:10:51.139Z,-1.82
2022-11-19T14:13:26.731Z,-2.00
2022-11-19T14:16:31.794Z,-1.91
2022-11-19T14:19:29.416Z,-1.87
2022-11-19T14:22:15.083Z,-1.80
2022-11-19T14:25:06.725Z,-1.82
2022-11-19T14:27:34.991Z,-1.97
2022-11-19T14:30:09.387Z,-2.12
2022-11-19T14:32:47.426Z,-2.18
2022-11-19T14:35:25.559Z,-1.98
2022-11-19T14:37:56.184Z,-2.02
2022-11-19T14:40:28.454Z,-2.56
2022-11-19T14:43:19.764Z,-1.90
2022-11-19T14:46:02.968Z,-2.12
2022-11-19T14:48:40.592Z,-2.26
2022-11-19T14:51:13.207Z,-2.30
2022-11-19T14:54:28.572Z,-2.34
2022-11-19T14:57:14.576Z,-2.54
2022-11-19T14:59:48.437Z,-2.44
2022-11-19T15:02:45.679Z,-2.36
2022-11-19T15:05:23.613Z,-2.41
2022-11-19T15:07:56.099Z,-2.40
2022-11-19T15:10:28.218Z,-2.28
2022-11-19T15:13:18.770Z,-2.29
2022-11-19T15:15:49.558Z,-2.31
2022-11-19T15:18:22.366Z,-2.47
2022-11-19T15:21:04.050Z,-2.46
2022-11-19T15:24:05.986Z,-2.28
2022-11-19T15:26:49.727Z,-2.28
2022-11-19T15:29:41.694Z,-2.44
2022-11-19T15:32:40.941Z,-2.42
2022-11-19T15:35:36.755Z,-2.07
2022-11-19T15:38:20.411Z,-2.11
2022-11-19T15:40:51.531Z,-2.00
2022-11-19T15:43:33.413Z,-2.28
2022-11-19T15:46:10.111Z,-2.16
2022-11-19T15:49:23.887Z,-1.99
2022-11-19T15:52:14.594Z,-2.18
2022-11-19T15:54:44.976Z,-2.02
2022-11-19T15:57:21.352Z,-2.11
2022-11-19T16:00:01.363Z,-2.13
2022-11-19T16:02:42.547Z,-1.95
2022-11-19T16:05:26.160Z,-1.99
2022-11-19T16:07:53.637Z,-1.98
2022-11-19T16:10:33.578Z,-2.05
2022-11-19T16:13:37.309Z,-2.13
2022-11-19T16:16:23.009Z,-2.01
2022-11-19T16:18:51.931Z,-1.79
2022-11-19T16:21:24.300Z,-2.03
2022-11-19T16:24:10.202Z,-2.02
2022-11-19T16:26:41.766Z,-2.13
2022-11-19T16:29:25.552Z,-2.53
2022-11-19T16:31:56.539Z,-2.34
2022-11-19T16:34:26.301Z,-2.39
2022-11-19T16:36:54.537Z,-2.12
2022-11-19T16:39:27.392Z,-2.06
2022-11-19T16:42:23.238Z,-1.96
2022-11-19T16:44:53.847Z,-1.98
2022-11-19T16:47:37.664Z,-2.17
2022-11-19T16:50:06.549Z,-1.89
2022-11-19T16:52:33.369Z,-1.92
2022-11-19T16:55:01.870Z,-2.18
2022-11-19T16:57:31.351Z,-2.12
2022-11-19T17:00:04.385Z,-1.82
2022-11-19T17:02:38.252Z,-1.98
2022-11-19T17:05:22.540Z,-1.85
2022-11-19T17:07:52.041Z,-1.93
2022-11-19T17:10:24.277Z,-1.86
2022-11-19T17:13:05.839Z,-1.84
2022-11-19T17:15:44.002Z,-1.74
2022-11-19T17:18:20.753Z,-1.98
2022-11-19T17:20:54.133Z,-2.04
2022-11-19T17:23:23.997Z,-1.81
2022-11-19T17:25:58.598Z,-1.89
2022-11-19T17:28:41.229Z,-1.81
2022-11-19T17:31:26.992Z,-1.83
2022-11-19T17:34:07.477Z,-1.82
2022-11-19T17:36:34.429Z,-1.85
2022-11-19T17:39:01.596Z,-1.85
2022-11-19T17:41:47.946Z,-1.74
2022-11-19T17:44:35.132Z,-1.85
2022-11-19T17:47:21.322Z,-1.95
2022-11-19T17:49:49.538Z,-2.17
2022-11-19T17:52:29.492Z,-2.18
2022-11-19T17:55:18.670Z,-2.07
2022-11-19T17:57:45.637Z,-2.33
2022-11-19T18:00:13.262Z,-2.04
2022-11-19T18:02:40.207Z,-2.07
2022-11-19T18:05:19.965Z,-2.05
2022-11-19T18:07:46.941Z,-2.16
2022-11-19T18:10:13.906Z,-1.99
2022-11-19T18:12:40.789Z,-1.96
2022-11-19T18:15:08.043Z,-1.80
2022-11-19T18:17:34.941Z,-1.86
2022-11-19T18:20:01.974Z,-1.84
2022-11-19T18:22:30.833Z,-1.90
2022-11-19T18:24:59.445Z,-1.81
2022-11-19T18:27:26.375Z,-1.79
2022-11-19T18:29:53.405Z,-1.99
2022-11-19T18:32:20.342Z,-1.76
2022-11-19T18:34:47.285Z,-1.90
2022-11-19T18:37:14.422Z,-1.83
2022-11-19T18:39:42.621Z,-1.68
2022-11-19T18:42:12.949Z,-1.62
2022-11-19T18:44:41.883Z,-1.83
2022-11-19T18:47:11.283Z,-1.58
2022-11-19T18:49:38.935Z,-1.76
2022-11-19T18:52:12.634Z,-1.46
2022-11-19T18:54:39.630Z,-1.57
2022-11-19T18:57:06.609Z,-1.76
2022-11-19T18:59:34.987Z,-1.45
2022-11-19T19:02:02.176Z,-1.32
2022-11-19T19:04:29.251Z,-1.28
2022-11-19T19:06:56.319Z,-1.77
2022-11-19T19:09:23.360Z,-1.26
2022-11-19T19:12:13.581Z,-1.41
2022-11-19T19:14:42.278Z,-1.23
2022-11-19T19:17:09.738Z,-1.23
2022-11-19T19:19:38.173Z,-1.22
2022-11-19T19:22:05.149Z,-1.44
2022-11-19T19:24:33.293Z,-1.24
2022-11-19T19:27:01.410Z,-1.25
2022-11-19T19:29:28.741Z,-1.22
2022-11-19T19:31:55.679Z,-1.60
2022-11-19T19:34:22.550Z,-1.35
2022-11-19T19:36:53.246Z,-1.26
2022-11-19T19:39:21.515Z,-1.30
2022-11-19T19:41:49.465Z,-1.22
2022-11-19T19:44:16.564Z,-1.31
2022-11-19T19:46:43.475Z,-1.25
2022-11-19T19:49:10.368Z,-1.22
2022-11-19T19:51:37.356Z,-1.51
2022-11-19T19:54:04.355Z,-1.49
2022-11-19T19:56:32.896Z,-1.46
2022-11-19T19:59:00.701Z,-1.26
2022-11-19T20:01:30.053Z,-1.24
2022-11-19T20:04:05.342Z,-1.22
2022-11-19T20:06:35.452Z,-1.15
2022-11-19T20:09:08.242Z,-1.14
2022-11-19T20:11:37.103Z,-1.12
2022-11-19T20:14:04.635Z,-1.31
2022-11-19T20:16:32.950Z,-1.42
2022-11-19T20:19:02.230Z,-1.32
2022-11-19T20:21:33.821Z,-1.23
2022-11-19T20:24:02.491Z,-1.27
2022-11-19T20:26:32.169Z,-1.28
2022-11-19T20:29:01.647Z,-1.31
2022-11-19T20:31:30.070Z,-1.36
2022-11-19T20:34:02.707Z,-1.38
2022-11-19T20:36:33.776Z,-1.42
2022-11-19T20:39:00.971Z,-1.24
2022-11-19T20:41:47.316Z,-1.21
2022-11-19T20:44:22.399Z,-1.16
2022-11-19T20:47:00.930Z,-1.26
2022-11-19T20:49:40.667Z,-1.23
2022-11-19T20:52:08.077Z,-1.23
2022-11-19T20:54:35.274Z,-1.15
2022-11-19T20:57:02.646Z,-1.09
2022-11-19T20:59:29.607Z,-1.17
2022-11-19T21:01:57.405Z,-1.14
2022-11-19T21:04:26.073Z,-1.22
2022-11-19T21:06:55.995Z,-1.26
2022-11-19T21:09:23.431Z,-1.26
2022-11-19T21:11:50.667Z,-1.28
2022-11-19T21:14:17.626Z,-1.22
2022-11-19T21:16:44.603Z,-1.26
2022-11-19T21:19:12.313Z,-1.17
2022-11-19T21:21:39.276Z,-1.22
2022-11-19T21:24:06.749Z,-1.24
2022-11-19T21:26:33.860Z,-1.23
2022-11-19T21:29:00.792Z,-1.22
2022-11-19T21:31:44.445Z,-1.12
2022-11-19T21:34:14.103Z,-1.13
2022-11-19T21:36:43.008Z,-1.35
2022-11-19T21:39:10.841Z,-1.17
2022-11-19T21:41:38.298Z,-1.10
2022-11-19T21:44:05.999Z,-1.40
2022-11-19T21:46:33.598Z,-1.72
2022-11-19T21:49:01.502Z,-1.50
2022-11-19T21:51:28.610Z,-1.52
2022-11-19T21:53:58.869Z,-1.53
2022-11-19T21:56:27.279Z,-1.43
2022-11-19T21:58:54.259Z,-1.26
2022-11-19T22:01:21.243Z,-1.54
2022-11-19T22:03:48.197Z,-1.34
2022-11-19T22:06:15.160Z,-1.44
2022-11-19T22:08:42.544Z,-1.52
2022-11-19T22:11:29.236Z,-1.38
2022-11-19T22:14:04.261Z,-1.50
2022-11-19T22:16:33.284Z,-1.52
2022-11-19T22:19:00.510Z,-1.74
2022-11-19T22:21:29.296Z,-1.30
2022-11-19T22:23:56.629Z,-1.21
2022-11-19T22:26:23.840Z,-1.31
2022-11-19T22:28:50.733Z,-1.25
2022-11-19T22:31:17.753Z,-1.23
2022-11-19T22:33:44.725Z,-1.23
2022-11-19T22:36:11.803Z,-1.49
2022-11-19T22:38:39.336Z,-1.45
2022-11-19T22:41:12.451Z,-1.58
2022-11-19T22:43:40.638Z,-1.61
2022-11-19T22:46:09.365Z,-1.47
2022-11-19T22:48:37.379Z,-1.46
2022-11-19T22:51:09.702Z,-1.40
2022-11-19T22:53:37.098Z,-1.35
2022-11-19T22:56:06.192Z,-1.25
2022-11-19T22:58:34.023Z,-1.73
2022-11-19T23:01:01.019Z,-1.08
2022-11-19T23:03:28.379Z,-1.04
2022-11-19T23:05:56.139Z,-1.11
2022-11-19T23:08:23.248Z,-1.06
2022-11-19T23:10:57.527Z,-0.94
2022-11-19T23:13:33.269Z,-0.92
2022-11-19T23:16:16.988Z,-1.00
2022-11-19T23:18:51.249Z,-1.24
2022-11-19T23:21:25.495Z,-0.97
2022-11-19T23:23:53.130Z,-1.00
2022-11-19T23:26:22.765Z,-0.92
2022-11-19T23:28:50.381Z,-0.90
2022-11-19T23:31:31.465Z,-0.80
2022-11-19T23:33:59.614Z,-0.88
2022-11-19T23:36:32.076Z,-1.00
2022-11-19T23:38:59.995Z,-0.95
2022-11-19T23:41:27.913Z,-0.99
2022-11-19T23:43:55.674Z,-1.03
2022-11-19T23:46:31.033Z,-1.14
2022-11-19T23:48:59.400Z,-1.12
2022-11-19T23:51:29.141Z,-1.20
2022-11-19T23:53:56.783Z,-1.12
2022-11-19T23:56:25.408Z,-1.18
2022-11-19T23:58:53.081Z,-1.26
